TimeCST,TemperatureF,Dew PointF,Humidity,Sea Level PressureIn,VisibilityMPH,Wind Direction,Wind SpeedMPH,Gust SpeedMPH,PrecipitationIn,Events,Conditions,WindDirDegrees,DateUTC
12:14 AM,-14.8,-22.0,70,30.14,10.0,Calm,Calm,-,N/A,,Clear,0,2013-02-16 06:14:00
12:33 AM,-13.0,-20.2,70,30.14,10.0,Calm,Calm,-,N/A,,Clear,0,2013-02-16 06:33:00
12:53 AM,-14.8,-23.8,64,30.13,10.0,Calm,Calm,-,N/A,,Clear,0,2013-02-16 06:53:00
1:13 AM,-16.6,-25.6,64,30.13,10.0,Calm,Calm,-,N/A,,Clear,0,2013-02-16 07:13:00
1:33 AM,-16.6,-23.8,70,30.13,7.0,Calm,Calm,-,N/A,,Clear,0,2013-02-16 07:33:00
1:53 AM,-18.4,-25.6,70,30.13,10.0,Calm,Calm,-,N/A,,Clear,0,2013-02-16 07:53:00
2:13 AM,-18.4,-25.6,70,30.12,10.0,Calm,Calm,-,N/A,,Clear,0,2013-02-16 08:13:00
2:33 AM,-20.2,-29.2,63,30.12,10.0,Calm,Calm,-,N/A,,Clear,0,2013-02-16 08:33:00
2:53 AM,-20.2,-27.4,69,30.12,10.0,Calm,Calm,-,N/A,,Clear,0,2013-02-16 08:53:00
3:13 AM,-20.2,-29.2,63,30.12,10.0,Calm,Calm,-,N/A,,Clear,0,2013-02-16 09:13:00
3:33 AM,-22.0,-29.2,69,30.11,10.0,Calm,Calm,-,N/A,,Clear,0,2013-02-16 09:33:00
3:53 AM,-23.8,-32.8,63,30.11,10.0,Calm,Calm,-,N/A,,Clear,0,2013-02-16 09:53:00
4:13 AM,-23.8,-32.8,63,30.11,10.0,Calm,Calm,-,N/A,,Clear,0,2013-02-16 10:13:00
4:53 AM,-23.8,-32.8,63,30.11,10.0,Calm,Calm,-,N/A,,Clear,0,2013-02-16 10:53:00
5:13 AM,-25.6,-34.6,63,30.12,10.0,Calm,Calm,-,N/A,,Clear,0,2013-02-16 11:13:00
5:33 AM,-25.6,-32.8,69,30.12,10.0,Calm,Calm,-,N/A,,Clear,0,2013-02-16 11:33:00
5:53 AM,-25.6,-32.8,69,30.13,10.0,Calm,Calm,-,N/A,,Clear,0,2013-02-16 11:53:00
6:13 AM,-25.6,-34.6,63,30.13,10.0,Calm,Calm,-,N/A,,Clear,0,2013-02-16 12:13:00
6:33 AM,-25.6,-34.6,63,30.13,10.0,Calm,Calm,-,N/A,,Clear,0,2013-02-16 12:33:00
6:53 AM,-25.6,-34.6,63,30.13,10.0,Calm,Calm,-,N/A,,Clear,0,2013-02-16 12:53:00
7:13 AM,-25.6,-34.6,63,30.13,10.0,Calm,Calm,-,N/A,,Clear,0,2013-02-16 13:13:00
7:33 AM,-23.8,-32.8,63,30.13,10.0,Calm,Calm,-,N/A,,Clear,0,2013-02-16 13:33:00
7:53 AM,-18.4,-27.4,63,30.13,10.0,Calm,Calm,-,N/A,,Clear,0,2013-02-16 13:53:00
8:13 AM,-13.0,-20.2,70,30.13,10.0,Calm,Calm,-,N/A,,Clear,0,2013-02-16 14:13:00
8:33 AM,-7.6,-14.8,71,30.13,10.0,Calm,Calm,-,N/A,,Clear,0,2013-02-16 14:33:00
8:53 AM,-0.4,-9.4,66,30.13,10.0,Calm,Calm,-,N/A,,Clear,0,2013-02-16 14:53:00
9:13 AM,3.2,-7.6,61,30.13,10.0,Calm,Calm,-,N/A,,Clear,0,2013-02-16 15:13:00
9:33 AM,6.8,-5.8,56,30.13,10.0,Calm,Calm,-,N/A,,Clear,0,2013-02-16 15:33:00
9:53 AM,12.2,-2.2,53,30.13,10.0,Calm,Calm,-,N/A,,Clear,0,2013-02-16 15:53:00
10:13 AM,12.2,-5.8,45,30.13,10.0,Calm,Calm,-,N/A,,Clear,0,2013-02-16 16:13:00
10:33 AM,14.0,-7.6,38,30.13,10.0,Calm,Calm,-,N/A,,Clear,0,2013-02-16 16:33:00
10:53 AM,15.8,-7.6,35,30.13,10.0,Calm,Calm,-,N/A,,Clear,0,2013-02-16 16:53:00
11:13 AM,17.6,-7.6,32,30.13,10.0,NE,5.8,-,N/A,,Clear,50,2013-02-16 17:13:00
11:33 AM,21.2,-7.6,28,30.12,10.0,Calm,Calm,-,N/A,,Clear,0,2013-02-16 17:33:00
11:53 AM,17.6,-9.4,30,30.11,10.0,Calm,Calm,-,N/A,,Unknown,0,2013-02-16 17:53:00
12:13 PM,19.4,-9.4,28,30.11,10.0,Calm,Calm,-,N/A,,Clear,0,2013-02-16 18:13:00
12:33 PM,21.2,-9.4,26,30.10,10.0,Calm,Calm,-,N/A,,Clear,0,2013-02-16 18:33:00
12:53 PM,24.8,-9.4,22,30.10,10.0,Calm,Calm,-,N/A,,Clear,0,2013-02-16 18:53:00
1:13 PM,24.8,-9.4,22,30.10,10.0,Calm,Calm,-,N/A,,Clear,0,2013-02-16 19:13:00
1:33 PM,24.8,-9.4,22,30.10,10.0,South,4.6,-,N/A,,Clear,170,2013-02-16 19:33:00
1:54 PM,17.6,-9.4,30,30.10,10.0,Calm,Calm,-,N/A,,Clear,0,2013-02-16 19:54:00
2:13 PM,15.8,-5.8,38,30.10,10.0,South,5.8,-,N/A,,Clear,190,2013-02-16 20:13:00
2:33 PM,15.8,-7.6,35,30.10,10.0,South,8.1,-,N/A,,Clear,180,2013-02-16 20:33:00
2:53 PM,15.8,-5.8,38,30.10,10.0,South,6.9,-,N/A,,Clear,170,2013-02-16 20:53:00
3:13 PM,14.0,-5.8,41,30.10,10.0,SSW,5.8,-,N/A,,Clear,200,2013-02-16 21:13:00
3:33 PM,14.0,-5.8,41,30.10,10.0,SSE,6.9,-,N/A,,Clear,160,2013-02-16 21:33:00
3:53 PM,14.0,-4.0,45,30.10,10.0,SSE,5.8,-,N/A,,Clear,160,2013-02-16 21:53:00
4:13 PM,12.2,-4.0,48,30.09,10.0,South,5.8,-,N/A,,Clear,180,2013-02-16 22:13:00
4:33 PM,12.2,-4.0,48,30.10,10.0,South,5.8,-,N/A,,Clear,190,2013-02-16 22:33:00
4:53 PM,10.4,-5.8,48,30.10,10.0,South,4.6,-,N/A,,Clear,180,2013-02-16 22:53:00
5:13 PM,8.6,-4.0,57,30.09,10.0,South,4.6,-,N/A,,Clear,190,2013-02-16 23:13:00
5:33 PM,6.8,-5.8,56,30.10,10.0,Calm,Calm,-,N/A,,Clear,0,2013-02-16 23:33:00
5:53 PM,3.2,-7.6,61,30.11,10.0,Calm,Calm,-,N/A,,Clear,0,2013-02-16 23:53:00
6:13 PM,1.4,-7.6,66,30.10,10.0,Calm,Calm,-,N/A,,Clear,0,2013-02-17 00:13:00
6:33 PM,-0.4,-9.4,66,30.11,10.0,Calm,Calm,-,N/A,,Clear,0,2013-02-17 00:33:00
6:53 PM,-2.2,-9.4,71,30.11,10.0,Calm,Calm,-,N/A,,Clear,0,2013-02-17 00:53:00
7:13 PM,-4.0,-11.2,71,30.11,10.0,Calm,Calm,-,N/A,,Clear,0,2013-02-17 01:13:00
7:33 PM,-5.8,-14.8,65,30.10,10.0,Calm,Calm,-,N/A,,Clear,0,2013-02-17 01:33:00
7:53 PM,-7.6,-14.8,71,30.10,10.0,Calm,Calm,-,N/A,,Clear,0,2013-02-17 01:53:00
8:13 PM,-7.6,-14.8,71,30.10,10.0,Calm,Calm,-,N/A,,Clear,0,2013-02-17 02:13:00
8:33 PM,-9.4,-16.6,71,30.10,10.0,Calm,Calm,-,N/A,,Clear,0,2013-02-17 02:33:00
8:53 PM,-11.2,-18.4,70,30.10,10.0,Calm,Calm,-,N/A,,Clear,0,2013-02-17 02:53:00
9:13 PM,-11.2,-18.4,70,30.10,10.0,Calm,Calm,-,N/A,,Clear,0,2013-02-17 03:13:00
9:33 PM,-11.2,-20.2,64,30.10,10.0,Calm,Calm,-,N/A,,Clear,0,2013-02-17 03:33:00
9:53 PM,-13.0,-20.2,70,30.09,10.0,Calm,Calm,-,N/A,,Clear,0,2013-02-17 03:53:00
10:13 PM,-14.8,-20.2,77,30.09,10.0,Calm,Calm,-,N/A,,Clear,0,2013-02-17 04:13:00
10:33 PM,-14.8,-22.0,70,30.08,10.0,Calm,Calm,-,N/A,,Clear,0,2013-02-17 04:33:00
10:53 PM,-14.8,-23.8,64,30.08,10.0,Calm,Calm,-,N/A,,Clear,0,2013-02-17 04:53:00
11:13 PM,-16.6,-23.8,70,30.08,10.0,Calm,Calm,-,N/A,,Clear,0,2013-02-17 05:13:00
11:33 PM,-16.6,-23.8,70,30.07,10.0,Calm,Calm,-,N/A,,Clear,0,2013-02-17 05:33:00
11:53 PM,-16.6,-23.8,70,30.07,10.0,Calm,Calm,-,N/A,,Clear,0,2013-02-17 05:53:00